sensor_id;sensor_type;location;lat;lon;timestamp;P1;durP1;ratioP1;P2;durP2;ratioP2
56927;SDS011;60850;52.502;13.426;2023-07-30T00:02:21;9.35;;;6.22;;
56927;SDS011;60850;52.502;13.426;2023-07-30T00:04:48;9.98;;;6.15;;
56927;SDS011;60850;52.502;13.426;2023-07-30T00:07:15;11.20;;;6.50;;
56927;SDS011;60850;52.502;13.426;2023-07-30T00:09:42;11.35;;;6.68;;
56927;SDS011;60850;52.502;13.426;2023-07-30T00:12:10;11.10;;;7.00;;
56927;SDS011;60850;52.502;13.426;2023-07-30T00:14:37;7.55;;;5.47;;
56927;SDS011;60850;52.502;13.426;2023-07-30T00:17:07;8.48;;;6.43;;
56927;SDS011;60850;52.502;13.426;2023-07-30T00:19:34;8.43;;;6.03;;
56927;SDS011;60850;52.502;13.426;2023-07-30T00:22:01;8.63;;;6.78;;
56927;SDS011;60850;52.502;13.426;2023-07-30T00:24:28;7.95;;;5.18;;
56927;SDS011;60850;52.502;13.426;2023-07-30T00:26:55;8.45;;;5.45;;
56927;SDS011;60850;52.502;13.426;2023-07-30T00:29:23;9.88;;;6.10;;
56927;SDS011;60850;52.502;13.426;2023-07-30T00:31:50;8.13;;;5.70;;
56927;SDS011;60850;52.502;13.426;2023-07-30T00:34:17;7.03;;;5.45;;
56927;SDS011;60850;52.502;13.426;2023-07-30T00:36:45;7.03;;;5.28;;
56927;SDS011;60850;52.502;13.426;2023-07-30T00:39:12;9.15;;;5.88;;
56927;SDS011;60850;52.502;13.426;2023-07-30T00:41:39;9.18;;;5.65;;
56927;SDS011;60850;52.502;13.426;2023-07-30T00:44:06;7.95;;;5.65;;
56927;SDS011;60850;52.502;13.426;2023-07-30T00:46:34;7.50;;;5.07;;
56927;SDS011;60850;52.502;13.426;2023-07-30T00:49:01;10.73;;;5.78;;
56927;SDS011;60850;52.502;13.426;2023-07-30T00:51:29;7.65;;;5.80;;
56927;SDS011;60850;52.502;13.426;2023-07-30T00:53:58;7.15;;;5.20;;
56927;SDS011;60850;52.502;13.426;2023-07-30T00:56:25;7.65;;;5.18;;
56927;SDS011;60850;52.502;13.426;2023-07-30T00:58:52;10.27;;;5.13;;
56927;SDS011;60850;52.502;13.426;2023-07-30T01:01:20;6.28;;;4.32;;
56927;SDS011;60850;52.502;13.426;2023-07-30T01:03:49;6.88;;;4.65;;
56927;SDS011;60850;52.502;13.426;2023-07-30T01:06:17;6.97;;;4.95;;
56927;SDS011;60850;52.502;13.426;2023-07-30T01:08:45;6.05;;;5.35;;
56927;SDS011;60850;52.502;13.426;2023-07-30T01:11:12;5.93;;;4.55;;
56927;SDS011;60850;52.502;13.426;2023-07-30T01:13:40;8.60;;;4.47;;
56927;SDS011;60850;52.502;13.426;2023-07-30T01:16:09;8.40;;;4.32;;
56927;SDS011;60850;52.502;13.426;2023-07-30T01:18:36;5.97;;;4.07;;
56927;SDS011;60850;52.502;13.426;2023-07-30T01:21:05;4.97;;;4.13;;
56927;SDS011;60850;52.502;13.426;2023-07-30T01:23:32;6.40;;;4.10;;
56927;SDS011;60850;52.502;13.426;2023-07-30T01:26:01;6.05;;;4.25;;
56927;SDS011;60850;52.502;13.426;2023-07-30T01:28:36;5.78;;;4.25;;
56927;SDS011;60850;52.502;13.426;2023-07-30T01:31:05;5.65;;;4.55;;
56927;SDS011;60850;52.502;13.426;2023-07-30T01:33:34;5.93;;;4.28;;
56927;SDS011;60850;52.502;13.426;2023-07-30T01:36:01;5.32;;;4.22;;
56927;SDS011;60850;52.502;13.426;2023-07-30T01:38:31;7.57;;;4.45;;
56927;SDS011;60850;52.502;13.426;2023-07-30T01:40:58;9.85;;;4.53;;
56927;SDS011;60850;52.502;13.426;2023-07-30T01:43:25;8.85;;;5.05;;
56927;SDS011;60850;52.502;13.426;2023-07-30T01:45:52;5.07;;;4.10;;
56927;SDS011;60850;52.502;13.426;2023-07-30T01:48:19;8.13;;;5.70;;
56927;SDS011;60850;52.502;13.426;2023-07-30T01:50:46;9.60;;;5.18;;
56927;SDS011;60850;52.502;13.426;2023-07-30T01:53:14;7.50;;;5.40;;
56927;SDS011;60850;52.502;13.426;2023-07-30T01:55:42;6.07;;;4.22;;
56927;SDS011;60850;52.502;13.426;2023-07-30T01:58:11;6.90;;;4.95;;
56927;SDS011;60850;52.502;13.426;2023-07-30T02:00:38;6.63;;;4.93;;
56927;SDS011;60850;52.502;13.426;2023-07-30T02:03:05;8.98;;;5.22;;
56927;SDS011;60850;52.502;13.426;2023-07-30T02:05:32;6.93;;;4.88;;
56927;SDS011;60850;52.502;13.426;2023-07-30T02:07:59;8.27;;;4.95;;
56927;SDS011;60850;52.502;13.426;2023-07-30T02:10:26;7.40;;;5.22;;
56927;SDS011;60850;52.502;13.426;2023-07-30T02:12:54;9.15;;;5.57;;
56927;SDS011;60850;52.502;13.426;2023-07-30T02:15:21;7.75;;;4.90;;
56927;SDS011;60850;52.502;13.426;2023-07-30T02:17:48;6.57;;;4.90;;
56927;SDS011;60850;52.502;13.426;2023-07-30T02:20:15;6.50;;;4.95;;
56927;SDS011;60850;52.502;13.426;2023-07-30T02:22:42;5.97;;;4.70;;
56927;SDS011;60850;52.502;13.426;2023-07-30T02:25:09;8.60;;;4.50;;
56927;SDS011;60850;52.502;13.426;2023-07-30T02:27:36;8.57;;;5.10;;
56927;SDS011;60850;52.502;13.426;2023-07-30T02:30:05;6.88;;;5.07;;
56927;SDS011;60850;52.502;13.426;2023-07-30T02:32:33;7.18;;;5.07;;
56927;SDS011;60850;52.502;13.426;2023-07-30T02:35:00;6.25;;;4.60;;
56927;SDS011;60850;52.502;13.426;2023-07-30T02:37:26;10.20;;;4.82;;
56927;SDS011;60850;52.502;13.426;2023-07-30T02:39:53;7.80;;;4.82;;
56927;SDS011;60850;52.502;13.426;2023-07-30T02:42:20;6.70;;;5.60;;
56927;SDS011;60850;52.502;13.426;2023-07-30T02:44:47;9.35;;;4.60;;
56927;SDS011;60850;52.502;13.426;2023-07-30T02:47:15;7.25;;;4.85;;
56927;SDS011;60850;52.502;13.426;2023-07-30T02:49:42;5.95;;;4.80;;
56927;SDS011;60850;52.502;13.426;2023-07-30T02:52:09;7.65;;;4.60;;
56927;SDS011;60850;52.502;13.426;2023-07-30T02:54:36;6.93;;;5.00;;
56927;SDS011;60850;52.502;13.426;2023-07-30T02:57:03;9.30;;;4.93;;
56927;SDS011;60850;52.502;13.426;2023-07-30T02:59:31;7.70;;;5.30;;
56927;SDS011;60850;52.502;13.426;2023-07-30T03:02:01;6.68;;;5.15;;
56927;SDS011;60850;52.502;13.426;2023-07-30T03:04:29;7.60;;;5.40;;
56927;SDS011;60850;52.502;13.426;2023-07-30T03:06:56;8.80;;;4.90;;
56927;SDS011;60850;52.502;13.426;2023-07-30T03:09:23;7.25;;;4.80;;
56927;SDS011;60850;52.502;13.426;2023-07-30T03:11:50;7.22;;;4.63;;
56927;SDS011;60850;52.502;13.426;2023-07-30T03:14:17;8.95;;;5.68;;
56927;SDS011;60850;52.502;13.426;2023-07-30T03:16:45;6.72;;;4.97;;
56927;SDS011;60850;52.502;13.426;2023-07-30T03:19:12;7.28;;;5.35;;
56927;SDS011;60850;52.502;13.426;2023-07-30T03:21:41;7.22;;;5.32;;
56927;SDS011;60850;52.502;13.426;2023-07-30T03:24:08;8.02;;;5.60;;
56927;SDS011;60850;52.502;13.426;2023-07-30T03:26:35;8.10;;;5.78;;
56927;SDS011;60850;52.502;13.426;2023-07-30T03:29:02;7.38;;;5.32;;
56927;SDS011;60850;52.502;13.426;2023-07-30T03:31:29;8.52;;;5.40;;
56927;SDS011;60850;52.502;13.426;2023-07-30T03:33:56;8.05;;;5.47;;
56927;SDS011;60850;52.502;13.426;2023-07-30T03:36:23;9.57;;;5.70;;
56927;SDS011;60850;52.502;13.426;2023-07-30T03:38:51;8.95;;;6.03;;
56927;SDS011;60850;52.502;13.426;2023-07-30T03:41:18;9.30;;;5.45;;
56927;SDS011;60850;52.502;13.426;2023-07-30T03:43:45;9.00;;;5.95;;
56927;SDS011;60850;52.502;13.426;2023-07-30T03:46:12;6.68;;;5.72;;
56927;SDS011;60850;52.502;13.426;2023-07-30T03:48:39;8.82;;;6.03;;
56927;SDS011;60850;52.502;13.426;2023-07-30T03:51:06;7.53;;;5.88;;
56927;SDS011;60850;52.502;13.426;2023-07-30T03:53:34;8.32;;;6.03;;
56927;SDS011;60850;52.502;13.426;2023-07-30T03:56:02;9.60;;;5.60;;
56927;SDS011;60850;52.502;13.426;2023-07-30T03:58:29;8.02;;;5.50;;
56927;SDS011;60850;52.502;13.426;2023-07-30T04:00:56;7.80;;;5.53;;
56927;SDS011;60850;52.502;13.426;2023-07-30T04:03:23;7.93;;;5.97;;
56927;SDS011;60850;52.502;13.426;2023-07-30T04:05:50;6.40;;;5.72;;
56927;SDS011;60850;52.502;13.426;2023-07-30T04:08:17;8.52;;;6.28;;
56927;SDS011;60850;52.502;13.426;2023-07-30T04:10:44;10.38;;;6.82;;
56927;SDS011;60850;52.502;13.426;2023-07-30T04:13:12;6.35;;;5.75;;
56927;SDS011;60850;52.502;13.426;2023-07-30T04:15:39;7.57;;;6.25;;
56927;SDS011;60850;52.502;13.426;2023-07-30T04:18:06;9.82;;;6.35;;
56927;SDS011;60850;52.502;13.426;2023-07-30T04:20:33;8.57;;;5.85;;
56927;SDS011;60850;52.502;13.426;2023-07-30T04:23:00;7.57;;;5.88;;
56927;SDS011;60850;52.502;13.426;2023-07-30T04:25:27;9.82;;;6.97;;
56927;SDS011;60850;52.502;13.426;2023-07-30T04:27:54;7.70;;;5.72;;
56927;SDS011;60850;52.502;13.426;2023-07-30T04:30:22;7.55;;;5.78;;
56927;SDS011;60850;52.502;13.426;2023-07-30T04:32:49;9.55;;;6.35;;
56927;SDS011;60850;52.502;13.426;2023-07-30T04:35:16;8.40;;;6.05;;
56927;SDS011;60850;52.502;13.426;2023-07-30T04:37:43;7.30;;;5.88;;
56927;SDS011;60850;52.502;13.426;2023-07-30T04:40:10;6.43;;;5.75;;
56927;SDS011;60850;52.502;13.426;2023-07-30T04:42:38;6.78;;;6.07;;
56927;SDS011;60850;52.502;13.426;2023-07-30T04:45:05;7.68;;;6.18;;
56927;SDS011;60850;52.502;13.426;2023-07-30T04:47:34;8.27;;;6.85;;
56927;SDS011;60850;52.502;13.426;2023-07-30T04:50:01;9.40;;;6.05;;
56927;SDS011;60850;52.502;13.426;2023-07-30T04:52:28;10.75;;;6.38;;
56927;SDS011;60850;52.502;13.426;2023-07-30T04:54:55;14.07;;;8.65;;
56927;SDS011;60850;52.502;13.426;2023-07-30T04:57:22;7.03;;;5.75;;
56927;SDS011;60850;52.502;13.426;2023-07-30T04:59:48;6.65;;;5.85;;
56927;SDS011;60850;52.502;13.426;2023-07-30T05:02:15;14.48;;;9.95;;
56927;SDS011;60850;52.502;13.426;2023-07-30T05:04:43;6.07;;;5.35;;
56927;SDS011;60850;52.502;13.426;2023-07-30T05:07:10;6.22;;;5.10;;
56927;SDS011;60850;52.502;13.426;2023-07-30T05:09:37;6.30;;;5.70;;
56927;SDS011;60850;52.502;13.426;2023-07-30T05:12:04;5.95;;;4.90;;
56927;SDS011;60850;52.502;13.426;2023-07-30T05:14:31;6.57;;;5.47;;
56927;SDS011;60850;52.502;13.426;2023-07-30T05:16:58;7.00;;;5.07;;
56927;SDS011;60850;52.502;13.426;2023-07-30T05:19:25;7.75;;;5.85;;
56927;SDS011;60850;52.502;13.426;2023-07-30T05:21:53;7.25;;;5.90;;
56927;SDS011;60850;52.502;13.426;2023-07-30T05:24:20;5.88;;;4.45;;
56927;SDS011;60850;52.502;13.426;2023-07-30T05:26:47;6.15;;;4.78;;
56927;SDS011;60850;52.502;13.426;2023-07-30T05:29:14;5.97;;;4.80;;
56927;SDS011;60850;52.502;13.426;2023-07-30T05:31:41;6.90;;;4.22;;
56927;SDS011;60850;52.502;13.426;2023-07-30T05:34:08;4.65;;;4.15;;
56927;SDS011;60850;52.502;13.426;2023-07-30T05:36:35;4.25;;;3.85;;
56927;SDS011;60850;52.502;13.426;2023-07-30T05:39:03;5.20;;;4.07;;
56927;SDS011;60850;52.502;13.426;2023-07-30T05:41:30;4.97;;;3.97;;
56927;SDS011;60850;52.502;13.426;2023-07-30T05:43:57;4.05;;;3.63;;
56927;SDS011;60850;52.502;13.426;2023-07-30T05:46:24;4.05;;;3.65;;
56927;SDS011;60850;52.502;13.426;2023-07-30T05:48:51;4.47;;;4.07;;
56927;SDS011;60850;52.502;13.426;2023-07-30T05:51:20;7.32;;;4.10;;
56927;SDS011;60850;52.502;13.426;2023-07-30T05:53:47;4.07;;;3.65;;
56927;SDS011;60850;52.502;13.426;2023-07-30T05:56:15;4.00;;;3.20;;
56927;SDS011;60850;52.502;13.426;2023-07-30T05:58:44;5.05;;;4.18;;
56927;SDS011;60850;52.502;13.426;2023-07-30T06:01:11;9.15;;;5.95;;
56927;SDS011;60850;52.502;13.426;2023-07-30T06:03:38;7.05;;;4.45;;
56927;SDS011;60850;52.502;13.426;2023-07-30T06:06:05;2.58;;;2.38;;
56927;SDS011;60850;52.502;13.426;2023-07-30T06:08:32;2.97;;;2.45;;
56927;SDS011;60850;52.502;13.426;2023-07-30T06:11:00;3.80;;;2.50;;
56927;SDS011;60850;52.502;13.426;2023-07-30T06:13:29;3.95;;;2.75;;
56927;SDS011;60850;52.502;13.426;2023-07-30T06:15:57;6.22;;;4.55;;
56927;SDS011;60850;52.502;13.426;2023-07-30T06:18:23;4.07;;;3.25;;
56927;SDS011;60850;52.502;13.426;2023-07-30T06:20:51;29.50;;;18.40;;
56927;SDS011;60850;52.502;13.426;2023-07-30T06:23:21;5.03;;;3.60;;
56927;SDS011;60850;52.502;13.426;2023-07-30T06:25:48;2.47;;;1.85;;
56927;SDS011;60850;52.502;13.426;2023-07-30T06:28:15;3.35;;;2.53;;
56927;SDS011;60850;52.502;13.426;2023-07-30T06:30:43;25.67;;;15.23;;
56927;SDS011;60850;52.502;13.426;2023-07-30T06:33:10;2.42;;;2.00;;
56927;SDS011;60850;52.502;13.426;2023-07-30T06:35:38;2.75;;;2.47;;
56927;SDS011;60850;52.502;13.426;2023-07-30T06:38:05;3.20;;;2.00;;
56927;SDS011;60850;52.502;13.426;2023-07-30T06:40:32;11.13;;;7.63;;
56927;SDS011;60850;52.502;13.426;2023-07-30T06:42:59;7.97;;;4.70;;
56927;SDS011;60850;52.502;13.426;2023-07-30T06:45:27;5.10;;;2.83;;
56927;SDS011;60850;52.502;13.426;2023-07-30T06:47:55;2.42;;;2.10;;
56927;SDS011;60850;52.502;13.426;2023-07-30T06:50:22;3.28;;;2.13;;
56927;SDS011;60850;52.502;13.426;2023-07-30T06:52:49;5.80;;;3.28;;
56927;SDS011;60850;52.502;13.426;2023-07-30T06:55:16;7.32;;;3.88;;
56927;SDS011;60850;52.502;13.426;2023-07-30T06:57:46;2.75;;;2.40;;
56927;SDS011;60850;52.502;13.426;2023-07-30T07:00:13;4.22;;;2.00;;
56927;SDS011;60850;52.502;13.426;2023-07-30T07:02:46;3.30;;;2.40;;
56927;SDS011;60850;52.502;13.426;2023-07-30T07:05:15;4.70;;;2.25;;
56927;SDS011;60850;52.502;13.426;2023-07-30T07:07:42;5.50;;;2.70;;
56927;SDS011;60850;52.502;13.426;2023-07-30T07:10:09;3.08;;;1.70;;
56927;SDS011;60850;52.502;13.426;2023-07-30T07:12:36;3.88;;;2.15;;
56927;SDS011;60850;52.502;13.426;2023-07-30T07:15:04;2.63;;;2.00;;
56927;SDS011;60850;52.502;13.426;2023-07-30T07:17:31;3.03;;;1.73;;
56927;SDS011;60850;52.502;13.426;2023-07-30T07:19:58;3.00;;;2.55;;
56927;SDS011;60850;52.502;13.426;2023-07-30T07:22:27;3.22;;;1.92;;
56927;SDS011;60850;52.502;13.426;2023-07-30T07:24:54;5.53;;;2.05;;
56927;SDS011;60850;52.502;13.426;2023-07-30T07:27:20;3.17;;;2.20;;
56927;SDS011;60850;52.502;13.426;2023-07-30T07:29:48;3.55;;;2.13;;
56927;SDS011;60850;52.502;13.426;2023-07-30T07:32:15;2.47;;;2.28;;
56927;SDS011;60850;52.502;13.426;2023-07-30T07:34:45;2.45;;;2.15;;
56927;SDS011;60850;52.502;13.426;2023-07-30T07:37:13;3.20;;;2.17;;
56927;SDS011;60850;52.502;13.426;2023-07-30T07:39:42;2.53;;;2.08;;
56927;SDS011;60850;52.502;13.426;2023-07-30T07:42:09;3.13;;;2.10;;
56927;SDS011;60850;52.502;13.426;2023-07-30T07:44:36;6.72;;;5.95;;
56927;SDS011;60850;52.502;13.426;2023-07-30T07:47:03;7.22;;;4.45;;
56927;SDS011;60850;52.502;13.426;2023-07-30T07:49:30;6.03;;;4.43;;
56927;SDS011;60850;52.502;13.426;2023-07-30T07:51:57;6.57;;;4.82;;
56927;SDS011;60850;52.502;13.426;2023-07-30T07:54:24;2.13;;;1.95;;
56927;SDS011;60850;52.502;13.426;2023-07-30T07:56:52;3.35;;;1.83;;
56927;SDS011;60850;52.502;13.426;2023-07-30T07:59:19;3.72;;;2.05;;
56927;SDS011;60850;52.502;13.426;2023-07-30T08:01:45;4.90;;;2.90;;
56927;SDS011;60850;52.502;13.426;2023-07-30T08:04:15;2.65;;;2.00;;
56927;SDS011;60850;52.502;13.426;2023-07-30T08:06:43;3.15;;;2.17;;
56927;SDS011;60850;52.502;13.426;2023-07-30T08:09:10;2.67;;;1.70;;
56927;SDS011;60850;52.502;13.426;2023-07-30T08:11:36;2.20;;;1.92;;
56927;SDS011;60850;52.502;13.426;2023-07-30T08:14:05;2.60;;;2.00;;
56927;SDS011;60850;52.502;13.426;2023-07-30T08:16:32;2.70;;;2.28;;
56927;SDS011;60850;52.502;13.426;2023-07-30T08:18:59;4.40;;;2.78;;
56927;SDS011;60850;52.502;13.426;2023-07-30T08:21:25;3.65;;;2.47;;
56927;SDS011;60850;52.502;13.426;2023-07-30T08:23:52;2.97;;;2.40;;
56927;SDS011;60850;52.502;13.426;2023-07-30T08:26:19;2.97;;;2.35;;
56927;SDS011;60850;52.502;13.426;2023-07-30T08:28:46;2.88;;;2.30;;
56927;SDS011;60850;52.502;13.426;2023-07-30T08:31:14;2.10;;;1.85;;
56927;SDS011;60850;52.502;13.426;2023-07-30T08:33:41;3.15;;;2.03;;
56927;SDS011;60850;52.502;13.426;2023-07-30T08:36:08;3.72;;;2.78;;
56927;SDS011;60850;52.502;13.426;2023-07-30T08:38:35;2.38;;;2.17;;
56927;SDS011;60850;52.502;13.426;2023-07-30T08:41:02;3.33;;;2.13;;
56927;SDS011;60850;52.502;13.426;2023-07-30T08:43:29;4.45;;;2.40;;
56927;SDS011;60850;52.502;13.426;2023-07-30T08:45:57;3.50;;;2.50;;
56927;SDS011;60850;52.502;13.426;2023-07-30T08:48:26;2.85;;;2.35;;
56927;SDS011;60850;52.502;13.426;2023-07-30T08:50:54;2.58;;;1.80;;
56927;SDS011;60850;52.502;13.426;2023-07-30T08:53:23;4.90;;;2.40;;
56927;SDS011;60850;52.502;13.426;2023-07-30T08:55:51;3.33;;;2.65;;
56927;SDS011;60850;52.502;13.426;2023-07-30T08:58:20;2.88;;;2.13;;
56927;SDS011;60850;52.502;13.426;2023-07-30T09:00:49;3.63;;;1.95;;
56927;SDS011;60850;52.502;13.426;2023-07-30T09:03:17;3.22;;;2.10;;
56927;SDS011;60850;52.502;13.426;2023-07-30T09:05:47;4.95;;;3.42;;
56927;SDS011;60850;52.502;13.426;2023-07-30T09:08:14;6.55;;;2.45;;
56927;SDS011;60850;52.502;13.426;2023-07-30T09:10:42;3.35;;;1.85;;
56927;SDS011;60850;52.502;13.426;2023-07-30T09:13:09;3.85;;;1.88;;
56927;SDS011;60850;52.502;13.426;2023-07-30T09:15:36;1.73;;;1.40;;
56927;SDS011;60850;52.502;13.426;2023-07-30T09:18:04;3.50;;;2.70;;
56927;SDS011;60850;52.502;13.426;2023-07-30T09:20:39;3.78;;;2.50;;
56927;SDS011;60850;52.502;13.426;2023-07-30T09:23:08;3.33;;;2.20;;
56927;SDS011;60850;52.502;13.426;2023-07-30T09:25:36;4.32;;;2.00;;
56927;SDS011;60850;52.502;13.426;2023-07-30T09:28:04;4.18;;;2.08;;
56927;SDS011;60850;52.502;13.426;2023-07-30T09:30:32;4.43;;;2.30;;
56927;SDS011;60850;52.502;13.426;2023-07-30T09:33:00;3.08;;;2.03;;
56927;SDS011;60850;52.502;13.426;2023-07-30T09:35:27;2.35;;;1.45;;
56927;SDS011;60850;52.502;13.426;2023-07-30T09:37:57;2.83;;;2.20;;
56927;SDS011;60850;52.502;13.426;2023-07-30T09:40:32;3.38;;;2.00;;
56927;SDS011;60850;52.502;13.426;2023-07-30T09:43:00;3.38;;;2.00;;
56927;SDS011;60850;52.502;13.426;2023-07-30T09:45:28;2.30;;;1.88;;
56927;SDS011;60850;52.502;13.426;2023-07-30T09:48:00;4.28;;;2.63;;
56927;SDS011;60850;52.502;13.426;2023-07-30T09:50:29;3.03;;;2.08;;
56927;SDS011;60850;52.502;13.426;2023-07-30T09:52:57;2.88;;;1.88;;
56927;SDS011;60850;52.502;13.426;2023-07-30T09:55:25;4.03;;;1.80;;
56927;SDS011;60850;52.502;13.426;2023-07-30T09:57:53;4.05;;;1.90;;
56927;SDS011;60850;52.502;13.426;2023-07-30T10:00:20;4.50;;;2.13;;
56927;SDS011;60850;52.502;13.426;2023-07-30T10:02:48;2.97;;;1.73;;
56927;SDS011;60850;52.502;13.426;2023-07-30T10:05:18;2.95;;;1.73;;
56927;SDS011;60850;52.502;13.426;2023-07-30T10:07:48;3.83;;;1.52;;
56927;SDS011;60850;52.502;13.426;2023-07-30T10:10:24;3.53;;;1.48;;
56927;SDS011;60850;52.502;13.426;2023-07-30T10:12:53;2.25;;;1.40;;
56927;SDS011;60850;52.502;13.426;2023-07-30T10:15:25;2.22;;;1.60;;
56927;SDS011;60850;52.502;13.426;2023-07-30T10:17:52;3.75;;;1.65;;
56927;SDS011;60850;52.502;13.426;2023-07-30T10:20:23;3.88;;;1.42;;
56927;SDS011;60850;52.502;13.426;2023-07-30T10:22:51;3.58;;;1.77;;
56927;SDS011;60850;52.502;13.426;2023-07-30T10:25:20;2.65;;;1.70;;
56927;SDS011;60850;52.502;13.426;2023-07-30T10:27:49;6.15;;;2.00;;
56927;SDS011;60850;52.502;13.426;2023-07-30T10:30:18;7.18;;;3.50;;
56927;SDS011;60850;52.502;13.426;2023-07-30T10:33:00;3.50;;;1.92;;
56927;SDS011;60850;52.502;13.426;2023-07-30T10:35:34;3.65;;;1.65;;
56927;SDS011;60850;52.502;13.426;2023-07-30T10:38:13;2.60;;;2.00;;
56927;SDS011;60850;52.502;13.426;2023-07-30T10:40:41;3.25;;;1.95;;
56927;SDS011;60850;52.502;13.426;2023-07-30T10:43:15;2.80;;;2.00;;
56927;SDS011;60850;52.502;13.426;2023-07-30T10:45:52;6.63;;;2.65;;
56927;SDS011;60850;52.502;13.426;2023-07-30T10:48:22;5.00;;;2.80;;
56927;SDS011;60850;52.502;13.426;2023-07-30T10:50:56;3.63;;;1.80;;
56927;SDS011;60850;52.502;13.426;2023-07-30T10:53:23;3.17;;;1.77;;
56927;SDS011;60850;52.502;13.426;2023-07-30T10:55:50;4.22;;;2.63;;
56927;SDS011;60850;52.502;13.426;2023-07-30T10:58:18;6.22;;;2.75;;
56927;SDS011;60850;52.502;13.426;2023-07-30T11:00:45;4.18;;;2.25;;
56927;SDS011;60850;52.502;13.426;2023-07-30T11:03:14;4.28;;;2.17;;
56927;SDS011;60850;52.502;13.426;2023-07-30T11:05:41;7.45;;;2.35;;
56927;SDS011;60850;52.502;13.426;2023-07-30T11:08:08;4.38;;;1.85;;
56927;SDS011;60850;52.502;13.426;2023-07-30T11:10:41;8.05;;;2.97;;
56927;SDS011;60850;52.502;13.426;2023-07-30T11:13:09;3.08;;;1.90;;
56927;SDS011;60850;52.502;13.426;2023-07-30T11:15:40;3.78;;;2.15;;
56927;SDS011;60850;52.502;13.426;2023-07-30T11:18:08;2.77;;;1.70;;
56927;SDS011;60850;52.502;13.426;2023-07-30T11:20:37;3.25;;;1.92;;
56927;SDS011;60850;52.502;13.426;2023-07-30T11:23:16;3.92;;;2.03;;
56927;SDS011;60850;52.502;13.426;2023-07-30T11:25:45;5.35;;;2.08;;
56927;SDS011;60850;52.502;13.426;2023-07-30T11:28:14;6.20;;;2.70;;
56927;SDS011;60850;52.502;13.426;2023-07-30T11:30:42;5.32;;;2.00;;
56927;SDS011;60850;52.502;13.426;2023-07-30T11:33:14;3.90;;;2.00;;
56927;SDS011;60850;52.502;13.426;2023-07-30T11:35:44;5.20;;;2.03;;
56927;SDS011;60850;52.502;13.426;2023-07-30T11:38:11;4.68;;;1.90;;
56927;SDS011;60850;52.502;13.426;2023-07-30T11:40:39;3.00;;;1.33;;
56927;SDS011;60850;52.502;13.426;2023-07-30T11:43:07;4.50;;;2.03;;
56927;SDS011;60850;52.502;13.426;2023-07-30T11:45:34;3.08;;;1.90;;
56927;SDS011;60850;52.502;13.426;2023-07-30T11:48:07;4.13;;;2.17;;
56927;SDS011;60850;52.502;13.426;2023-07-30T11:50:44;2.88;;;1.60;;
56927;SDS011;60850;52.502;13.426;2023-07-30T11:53:12;3.75;;;1.85;;
56927;SDS011;60850;52.502;13.426;2023-07-30T11:55:40;3.80;;;1.77;;
56927;SDS011;60850;52.502;13.426;2023-07-30T11:58:08;4.18;;;2.00;;
56927;SDS011;60850;52.502;13.426;2023-07-30T12:00:39;3.80;;;1.55;;
56927;SDS011;60850;52.502;13.426;2023-07-30T12:03:10;3.15;;;1.77;;
56927;SDS011;60850;52.502;13.426;2023-07-30T12:05:38;5.38;;;1.60;;
56927;SDS011;60850;52.502;13.426;2023-07-30T12:08:12;4.63;;;1.60;;
56927;SDS011;60850;52.502;13.426;2023-07-30T12:10:43;4.07;;;1.70;;
56927;SDS011;60850;52.502;13.426;2023-07-30T12:13:11;4.93;;;2.67;;
56927;SDS011;60850;52.502;13.426;2023-07-30T12:15:38;8.60;;;3.72;;
56927;SDS011;60850;52.502;13.426;2023-07-30T12:18:05;8.93;;;2.92;;
56927;SDS011;60850;52.502;13.426;2023-07-30T12:20:32;6.57;;;2.15;;
56927;SDS011;60850;52.502;13.426;2023-07-30T12:22:59;3.25;;;1.80;;
56927;SDS011;60850;52.502;13.426;2023-07-30T12:25:27;6.22;;;2.20;;
56927;SDS011;60850;52.502;13.426;2023-07-30T12:27:54;4.70;;;1.60;;
56927;SDS011;60850;52.502;13.426;2023-07-30T12:30:21;4.13;;;1.80;;
56927;SDS011;60850;52.502;13.426;2023-07-30T12:32:49;3.90;;;1.83;;
56927;SDS011;60850;52.502;13.426;2023-07-30T12:35:15;4.45;;;1.70;;
56927;SDS011;60850;52.502;13.426;2023-07-30T12:37:42;2.83;;;1.80;;
56927;SDS011;60850;52.502;13.426;2023-07-30T12:40:09;3.05;;;2.00;;
56927;SDS011;60850;52.502;13.426;2023-07-30T12:42:38;3.80;;;1.98;;
56927;SDS011;60850;52.502;13.426;2023-07-30T12:45:05;5.15;;;2.15;;
56927;SDS011;60850;52.502;13.426;2023-07-30T12:47:33;6.78;;;3.30;;
56927;SDS011;60850;52.502;13.426;2023-07-30T12:50:02;4.75;;;2.20;;
56927;SDS011;60850;52.502;13.426;2023-07-30T12:52:30;4.50;;;2.00;;
56927;SDS011;60850;52.502;13.426;2023-07-30T12:54:58;3.28;;;1.50;;
56927;SDS011;60850;52.502;13.426;2023-07-30T12:57:25;4.35;;;1.80;;
56927;SDS011;60850;52.502;13.426;2023-07-30T12:59:54;3.30;;;1.90;;
56927;SDS011;60850;52.502;13.426;2023-07-30T13:02:21;2.92;;;1.80;;
56927;SDS011;60850;52.502;13.426;2023-07-30T13:04:48;5.38;;;2.90;;
56927;SDS011;60850;52.502;13.426;2023-07-30T13:07:15;4.22;;;1.98;;
56927;SDS011;60850;52.502;13.426;2023-07-30T13:09:42;4.70;;;2.38;;
56927;SDS011;60850;52.502;13.426;2023-07-30T13:12:09;5.30;;;2.30;;
56927;SDS011;60850;52.502;13.426;2023-07-30T13:14:35;6.18;;;3.15;;
56927;SDS011;60850;52.502;13.426;2023-07-30T13:17:07;4.70;;;2.58;;
56927;SDS011;60850;52.502;13.426;2023-07-30T13:19:33;3.15;;;1.70;;
56927;SDS011;60850;52.502;13.426;2023-07-30T13:22:00;3.00;;;2.08;;
56927;SDS011;60850;52.502;13.426;2023-07-30T13:24:27;5.88;;;2.90;;
56927;SDS011;60850;52.502;13.426;2023-07-30T13:26:57;7.30;;;3.75;;
56927;SDS011;60850;52.502;13.426;2023-07-30T13:29:24;6.38;;;2.38;;
56927;SDS011;60850;52.502;13.426;2023-07-30T13:31:54;3.47;;;2.83;;
56927;SDS011;60850;52.502;13.426;2023-07-30T13:34:22;6.80;;;3.55;;
56927;SDS011;60850;52.502;13.426;2023-07-30T13:36:49;4.25;;;1.90;;
56927;SDS011;60850;52.502;13.426;2023-07-30T13:39:16;6.30;;;2.42;;
56927;SDS011;60850;52.502;13.426;2023-07-30T13:41:43;5.88;;;3.50;;
56927;SDS011;60850;52.502;13.426;2023-07-30T13:44:10;5.35;;;2.47;;
56927;SDS011;60850;52.502;13.426;2023-07-30T13:46:39;4.72;;;2.17;;
56927;SDS011;60850;52.502;13.426;2023-07-30T13:49:07;3.05;;;2.08;;
56927;SDS011;60850;52.502;13.426;2023-07-30T13:51:35;6.72;;;3.03;;
56927;SDS011;60850;52.502;13.426;2023-07-30T13:54:02;5.78;;;2.58;;
56927;SDS011;60850;52.502;13.426;2023-07-30T13:56:30;3.30;;;2.30;;
56927;SDS011;60850;52.502;13.426;2023-07-30T13:58:57;3.38;;;1.75;;
56927;SDS011;60850;52.502;13.426;2023-07-30T14:01:25;4.22;;;1.73;;
56927;SDS011;60850;52.502;13.426;2023-07-30T14:03:52;5.85;;;1.60;;
56927;SDS011;60850;52.502;13.426;2023-07-30T14:06:18;4.82;;;2.00;;
56927;SDS011;60850;52.502;13.426;2023-07-30T14:08:47;2.75;;;1.52;;
56927;SDS011;60850;52.502;13.426;2023-07-30T14:11:14;3.65;;;1.70;;
56927;SDS011;60850;52.502;13.426;2023-07-30T14:13:41;2.80;;;1.50;;
56927;SDS011;60850;52.502;13.426;2023-07-30T14:16:08;3.45;;;1.40;;
56927;SDS011;60850;52.502;13.426;2023-07-30T14:18:35;2.67;;;1.20;;
56927;SDS011;60850;52.502;13.426;2023-07-30T14:21:04;2.33;;;1.00;;
56927;SDS011;60850;52.502;13.426;2023-07-30T14:23:31;2.55;;;1.33;;
56927;SDS011;60850;52.502;13.426;2023-07-30T14:25:59;2.63;;;1.30;;
56927;SDS011;60850;52.502;13.426;2023-07-30T14:28:26;3.95;;;1.85;;
56927;SDS011;60850;52.502;13.426;2023-07-30T14:30:53;3.90;;;1.30;;
56927;SDS011;60850;52.502;13.426;2023-07-30T14:33:23;2.50;;;1.30;;
56927;SDS011;60850;52.502;13.426;2023-07-30T14:35:50;6.43;;;1.73;;
56927;SDS011;60850;52.502;13.426;2023-07-30T14:38:17;3.25;;;1.60;;